Time,TemperatureF,DewpointF,PressureIn,WindDirection,WindDirectionDegrees,WindSpeedMPH,WindSpeedGustMPH,Humidity,HourlyPrecipIn,Conditions,Clouds,dailyrainin,SoftwareType,DateUTC
2013-05-19 08:56:00,72.9,65.3,29.88,SE,132,7.0,8.0,77,0.00,,,0.00,Wunderground v.1.15,2013-05-19 13:56:00,
2013-05-19 08:58:00,73.0,65.4,29.88,SE,131,7.0,8.0,77,0.00,,,0.00,Wunderground v.1.15,2013-05-19 13:58:00,
2013-05-19 09:00:00,72.9,65.3,29.88,SE,140,7.0,7.0,77,0.00,,,0.00,Wunderground v.1.15,2013-05-19 14:00:00,
2013-05-19 09:01:00,72.9,65.3,29.89,SE,144,7.0,8.0,77,0.00,,,0.00,Wunderground v.1.15,2013-05-19 14:01:00,
2013-05-19 09:06:00,72.7,65.1,29.88,SE,134,8.0,11.0,77,0.00,,,0.00,Wunderground v.1.15,2013-05-19 14:06:00,
2013-05-19 09:13:00,73.8,65.4,29.89,SSE,149,11.0,11.0,75,0.00,,,0.00,Wunderground v.1.15,2013-05-19 14:13:00,
2013-05-19 09:19:00,74.2,65.4,29.89,SE,136,6.0,11.0,74,0.00,,,0.00,Wunderground v.1.15,2013-05-19 14:19:00,
2013-05-19 09:24:00,74.4,65.2,29.88,East,98,7.0,13.0,73,0.00,,,0.00,Wunderground v.1.15,2013-05-19 14:24:00,
2013-05-19 09:30:00,74.9,65.3,29.87,East,90,7.0,7.0,72,0.00,,,0.00,Wunderground v.1.15,2013-05-19 14:30:00,
2013-05-19 09:35:00,74.9,65.7,29.86,ESE,113,6.0,11.0,73,0.00,,,0.00,Wunderground v.1.15,2013-05-19 14:35:00,
2013-05-19 09:41:00,75.5,66.2,29.86,SSE,147,6.0,8.0,73,0.00,,,0.00,Wunderground v.1.15,2013-05-19 14:41:00,
2013-05-19 09:47:00,76.0,65.9,29.86,ESE,121,7.0,10.0,71,0.00,,,0.00,Wunderground v.1.15,2013-05-19 14:47:00,
2013-05-19 09:53:00,76.0,65.5,29.87,SSE,161,6.0,7.0,70,0.00,,,0.00,Wunderground v.1.15,2013-05-19 14:53:00,
2013-05-19 09:58:00,76.5,65.1,29.87,ENE,63,7.0,12.0,68,0.00,,,0.00,Wunderground v.1.15,2013-05-19 14:58:00,
2013-05-19 10:04:00,76.6,65.7,29.87,SE,146,6.0,10.0,69,0.00,,,0.00,Wunderground v.1.15,2013-05-19 15:04:00,
2013-05-19 10:09:00,77.1,64.9,29.86,ESE,121,5.0,11.0,66,0.00,,,0.00,Wunderground v.1.15,2013-05-19 15:09:00,
2013-05-19 10:15:00,77.1,64.4,29.86,SE,137,5.0,11.0,65,0.00,,,0.00,Wunderground v.1.15,2013-05-19 15:15:00,
2013-05-19 10:20:00,77.5,64.4,29.86,SE,141,6.0,11.0,64,0.00,,,0.00,Wunderground v.1.15,2013-05-19 15:20:00,
2013-05-19 10:26:00,77.9,64.3,29.85,SE,134,9.0,13.0,63,0.00,,,0.00,Wunderground v.1.15,2013-05-19 15:26:00,
2013-05-19 10:31:00,77.5,64.8,29.85,SE,136,8.0,11.0,65,0.00,,,0.00,Wunderground v.1.15,2013-05-19 15:31:00,
2013-05-19 10:37:00,77.4,64.3,29.85,ESE,122,6.0,11.0,64,0.00,,,0.00,Wunderground v.1.15,2013-05-19 15:37:00,
2013-05-19 10:43:00,78.1,65.4,29.85,SE,124,6.0,11.0,65,0.00,,,0.00,Wunderground v.1.15,2013-05-19 15:43:00,
2013-05-19 10:48:00,78.7,65.0,29.84,ENE,65,6.0,13.0,63,0.00,,,0.00,Wunderground v.1.15,2013-05-19 15:48:00,
2013-05-19 10:54:00,78.2,64.6,29.84,SE,135,7.0,11.0,63,0.00,,,0.00,Wunderground v.1.15,2013-05-19 15:54:00,
2013-05-19 10:59:00,78.5,64.4,29.84,NE,45,8.0,11.0,62,0.00,,,0.00,Wunderground v.1.15,2013-05-19 15:59:00,
2013-05-19 11:05:00,78.9,64.3,29.84,ESE,121,8.0,11.0,61,0.00,,,0.00,Wunderground v.1.15,2013-05-19 16:05:00,
2013-05-19 11:10:00,78.9,64.3,29.84,SE,136,8.0,8.0,61,0.00,,,0.00,Wunderground v.1.15,2013-05-19 16:10:00,
2013-05-19 11:15:00,79.0,63.9,29.84,SSE,149,8.0,14.0,60,0.00,,,0.00,Wunderground v.1.15,2013-05-19 16:15:00,
2013-05-19 11:21:00,79.1,64.5,29.83,SE,130,8.0,12.0,61,0.00,,,0.00,Wunderground v.1.15,2013-05-19 16:21:00,
2013-05-19 11:26:00,79.4,63.8,29.83,SSE,148,9.0,15.0,59,0.00,,,0.00,Wunderground v.1.15,2013-05-19 16:26:00,
2013-05-19 11:31:00,79.6,64.0,29.83,ESE,123,10.0,14.0,59,0.00,,,0.00,Wunderground v.1.15,2013-05-19 16:31:00,
2013-05-19 11:36:00,80.5,64.9,29.83,SSE,153,9.0,15.0,59,0.00,,,0.00,Wunderground v.1.15,2013-05-19 16:36:00,
2013-05-19 11:41:00,80.6,64.9,29.83,SSE,165,10.0,11.0,59,0.00,,,0.00,Wunderground v.1.15,2013-05-19 16:41:00,
2013-05-19 11:47:00,80.8,64.6,29.83,SE,129,10.0,16.0,58,0.00,,,0.00,Wunderground v.1.15,2013-05-19 16:47:00,
2013-05-19 11:53:00,80.8,64.6,29.84,SE,140,10.0,16.0,58,0.00,,,0.00,Wunderground v.1.15,2013-05-19 16:53:00,
2013-05-19 11:58:00,81.4,64.7,29.83,SE,130,11.0,16.0,57,0.00,,,0.00,Wunderground v.1.15,2013-05-19 16:58:00,
2013-05-19 12:04:00,82.3,64.5,29.84,SSE,161,13.0,16.0,55,0.00,,,0.00,Wunderground v.1.15,2013-05-19 17:04:00,
2013-05-19 12:09:00,82.9,65.1,29.84,SE,134,12.0,16.0,55,0.00,,,0.00,Wunderground v.1.15,2013-05-19 17:09:00,
2013-05-19 12:15:00,83.0,64.6,29.83,SE,138,12.0,17.0,54,0.00,,,0.00,Wunderground v.1.15,2013-05-19 17:15:00,
2013-05-19 12:21:00,83.5,65.1,29.83,ESE,104,10.0,12.0,54,0.00,,,0.00,Wunderground v.1.15,2013-05-19 17:21:00,
2013-05-19 12:26:00,83.7,65.8,29.82,SSE,154,9.0,14.0,55,0.00,,,0.00,Wunderground v.1.15,2013-05-19 17:26:00,
2013-05-19 12:32:00,84.0,65.0,29.82,SE,142,11.0,14.0,53,0.00,,,0.00,Wunderground v.1.15,2013-05-19 17:32:00,
2013-05-19 12:37:00,84.0,65.0,29.81,SSE,148,12.0,17.0,53,0.00,,,0.00,Wunderground v.1.15,2013-05-19 17:37:00,
2013-05-19 12:43:00,83.9,64.9,29.81,ESE,106,13.0,18.0,53,0.00,,,0.00,Wunderground v.1.15,2013-05-19 17:43:00,
2013-05-19 12:48:00,84.3,65.3,29.82,SE,130,12.0,20.0,53,0.00,,,0.00,Wunderground v.1.15,2013-05-19 17:48:00,
2013-05-19 12:54:00,84.6,65.0,29.82,SSE,155,11.0,13.0,52,0.00,,,0.00,Wunderground v.1.15,2013-05-19 17:54:00,
2013-05-19 12:59:00,84.9,64.8,29.82,SE,134,11.0,13.0,51,0.00,,,0.00,Wunderground v.1.15,2013-05-19 17:59:00,
2013-05-19 13:05:00,85.2,64.5,29.82,SSE,150,12.0,16.0,50,0.00,,,0.00,Wunderground v.1.15,2013-05-19 18:05:00,
2013-05-19 13:10:00,85.0,63.7,29.83,SE,135,4.8,19.0,49,0.00,CLR,,0.00,WeatherDisplay:10.37,2013-05-19 18:10:00,
2013-05-19 13:15:00,83.8,63.7,29.83,SSE,160,0.0,21.9,51,0.00,CLR,,0.00,WeatherDisplay:10.37,2013-05-19 18:15:00,
2013-05-19 13:20:00,83.3,63.8,29.83,ESE,119,14.0,18.4,52,0.00,CLR,,0.00,WeatherDisplay:10.37,2013-05-19 18:20:00,
2013-05-19 13:25:00,83.4,65.0,29.83,ESE,119,11.0,18.4,54,0.00,CLR,,0.00,WeatherDisplay:10.37,2013-05-19 18:25:00,
2013-05-19 13:30:00,83.7,65.3,29.82,SE,136,10.3,13.8,54,0.00,CLR,,0.00,WeatherDisplay:10.37,2013-05-19 18:30:00,
2013-05-19 13:35:00,84.4,64.9,29.81,SE,134,10.8,19.6,52,0.00,CLR,,0.00,WeatherDisplay:10.37,2013-05-19 18:35:00,
2013-05-19 13:40:00,85.4,65.8,29.80,SE,140,12.0,16.1,52,0.00,CLR,,0.00,WeatherDisplay:10.37,2013-05-19 18:40:00,
2013-05-19 13:45:00,86.1,65.3,29.80,SSE,150,13.5,23.0,50,0.00,CLR,,0.00,WeatherDisplay:10.37,2013-05-19 18:45:00,
2013-05-19 13:50:00,85.4,65.2,29.79,SE,138,10.8,16.1,51,0.00,CLR,,0.00,WeatherDisplay:10.37,2013-05-19 18:50:00,
2013-05-19 13:55:00,86.1,65.9,29.78,SE,132,16.1,20.7,51,0.00,CLR,,0.00,WeatherDisplay:10.37,2013-05-19 18:55:00,
2013-05-19 14:00:00,86.3,67.2,29.78,SSE,166,12.3,16.1,53,0.00,CLR,,0.00,WeatherDisplay:10.37,2013-05-19 19:00:00,
2013-05-19 14:05:00,86.1,66.4,29.78,SE,142,11.9,16.1,52,0.00,CLR,,0.00,WeatherDisplay:10.37,2013-05-19 19:05:00,
2013-05-19 14:10:00,86.0,66.3,29.78,SE,144,16.9,24.2,52,0.00,CLR,,0.00,WeatherDisplay:10.37,2013-05-19 19:10:00,
2013-05-19 14:15:00,86.6,66.9,29.78,South,169,6.8,12.7,52,0.00,CLR,,0.00,WeatherDisplay:10.37,2013-05-19 19:15:00,
2013-05-19 14:20:00,86.2,66.5,29.77,SSE,167,13.5,19.6,52,0.00,CLR,,0.00,WeatherDisplay:10.37,2013-05-19 19:20:00,
2013-05-19 14:25:00,86.8,67.6,29.77,SE,135,11.3,15.0,53,0.00,CLR,,0.00,WeatherDisplay:10.37,2013-05-19 19:25:00,
2013-05-19 14:30:00,87.6,67.2,29.76,SE,133,13.1,15.0,51,0.00,CLR,,0.00,WeatherDisplay:10.37,2013-05-19 19:30:00,
2013-05-19 14:35:00,86.9,67.2,29.76,SE,137,14.7,21.0,52,0.00,CLR,,0.00,WeatherDisplay:10.37,2013-05-19 19:35:00,
2013-05-19 14:40:00,87.0,66.7,29.75,SE,141,13.9,24.2,51,0.00,CLR,,0.00,WeatherDisplay:10.37,2013-05-19 19:40:00,
2013-05-19 14:45:00,87.0,67.2,29.74,SE,127,6.8,16.1,52,0.00,CLR,,0.00,WeatherDisplay:10.37,2013-05-19 19:45:00,
2013-05-19 14:50:00,87.5,67.1,29.72,ESE,123,6.1,11.5,51,0.00,CLR,,0.00,WeatherDisplay:10.37,2013-05-19 19:50:00,
2013-05-19 14:55:00,86.9,66.6,29.71,SSE,148,10.7,16.1,51,0.00,CLR,,0.00,WeatherDisplay:10.37,2013-05-19 19:55:00,
2013-05-19 15:00:00,87.5,66.6,29.71,SE,138,9.8,16.1,50,0.00,CLR,,0.00,WeatherDisplay:10.37,2013-05-19 20:00:00,
2013-05-19 15:05:00,87.8,66.3,29.72,SE,140,12.3,19.6,49,0.00,CLR,,0.00,WeatherDisplay:10.37,2013-05-19 20:05:00,
2013-05-19 15:10:00,88.0,66.4,29.72,East,81,7.9,16.1,49,0.00,CLR,,0.00,WeatherDisplay:10.37,2013-05-19 20:10:00,
2013-05-19 15:15:00,87.1,66.2,29.71,SE,140,5.0,15.0,50,0.00,CLR,,0.00,WeatherDisplay:10.37,2013-05-19 20:15:00,
2013-05-19 15:20:00,86.8,66.5,29.70,SE,141,4.7,11.5,51,0.00,CLR,,0.00,WeatherDisplay:10.37,2013-05-19 20:20:00,
2013-05-19 15:25:00,87.0,66.1,29.70,East,97,9.7,12.7,50,0.00,CLR,,0.00,WeatherDisplay:10.37,2013-05-19 20:25:00,
2013-05-19 15:30:00,87.4,67.1,29.69,ENE,67,6.5,10.4,51,0.00,CLR,,0.00,WeatherDisplay:10.37,2013-05-19 20:30:00,
2013-05-19 15:35:00,87.8,65.7,29.69,East,79,10.3,18.4,48,0.00,CLR,,0.00,WeatherDisplay:10.37,2013-05-19 20:35:00,
2013-05-19 15:40:00,87.8,66.8,29.69,ESE,114,7.4,11.5,50,0.00,CLR,,0.00,WeatherDisplay:10.37,2013-05-19 20:40:00,
2013-05-19 15:45:00,87.7,66.2,29.69,ESE,113,6.0,12.7,49,0.00,CLR,,0.00,WeatherDisplay:10.37,2013-05-19 20:45:00,
2013-05-19 15:50:00,88.2,66.6,29.69,ENE,71,8.9,13.8,49,0.00,CLR,,0.00,WeatherDisplay:10.37,2013-05-19 20:50:00,
2013-05-19 15:55:00,88.6,66.4,29.70,SE,137,15.5,20.7,48,0.00,CLR,,0.00,WeatherDisplay:10.37,2013-05-19 20:55:00,
2013-05-19 16:00:00,88.7,65.3,29.70,East,90,7.2,15.0,46,0.00,CLR,,0.00,WeatherDisplay:10.37,2013-05-19 21:00:00,
2013-05-19 16:05:00,88.4,65.6,29.71,East,87,12.1,19.6,47,0.00,CLR,,0.00,WeatherDisplay:10.37,2013-05-19 21:05:00,
2013-05-19 16:10:00,88.0,65.8,29.70,ENE,78,7.4,24.2,48,0.00,CLR,,0.00,WeatherDisplay:10.37,2013-05-19 21:10:00,
2013-05-19 16:15:00,88.2,65.4,29.70,ENE,69,8.0,19.6,47,0.00,CLR,,0.00,WeatherDisplay:10.37,2013-05-19 21:15:00,
2013-05-19 16:20:00,88.5,65.1,29.71,SE,126,14.3,24.2,46,0.00,CLR,,0.00,WeatherDisplay:10.37,2013-05-19 21:20:00,
2013-05-19 16:25:00,88.6,65.8,29.71,SE,142,13.5,19.6,47,0.00,CLR,,0.00,WeatherDisplay:10.37,2013-05-19 21:25:00,
2013-05-19 16:30:00,89.0,66.2,29.71,SE,132,13.0,15.0,47,0.00,CLR,,0.00,WeatherDisplay:10.37,2013-05-19 21:30:00,
2013-05-19 16:35:00,89.2,66.3,29.71,SE,136,10.4,15.0,47,0.00,CLR,,0.00,WeatherDisplay:10.37,2013-05-19 21:35:00,
2013-05-19 16:40:00,89.1,66.2,29.71,East,88,8.2,11.5,47,0.00,CLR,,0.00,WeatherDisplay:10.37,2013-05-19 21:40:00,
2013-05-19 16:45:00,88.5,66.3,29.71,SE,136,12.4,18.4,48,0.00,CLR,,0.00,WeatherDisplay:10.37,2013-05-19 21:45:00,
2013-05-19 16:50:00,88.8,66.6,29.71,SE,131,13.6,17.3,48,0.00,CLR,,0.00,WeatherDisplay:10.37,2013-05-19 21:50:00,
2013-05-19 16:55:00,88.6,65.8,29.71,East,96,11.9,16.1,47,0.00,CLR,,0.00,WeatherDisplay:10.37,2013-05-19 21:55:00,
2013-05-19 17:00:00,87.9,66.4,29.71,SE,132,11.2,16.1,49,0.00,CLR,,0.00,WeatherDisplay:10.37,2013-05-19 22:00:00,
2013-05-19 17:05:00,88.1,66.5,29.70,SE,127,13.3,13.3,49,0.00,CLR,,0.00,WeatherDisplay:10.37,2013-05-19 22:05:00,
2013-05-19 17:10:00,88.3,65.5,29.70,SE,132,8.9,19.6,47,0.00,CLR,,0.00,WeatherDisplay:10.37,2013-05-19 22:10:00,
2013-05-19 17:15:00,88.0,65.8,29.70,SE,133,9.5,15.0,48,0.00,CLR,,0.00,WeatherDisplay:10.37,2013-05-19 22:15:00,
2013-05-19 17:20:00,87.7,65.6,29.69,ESE,106,9.8,18.4,48,0.00,CLR,,0.00,WeatherDisplay:10.37,2013-05-19 22:20:00,
2013-05-19 17:25:00,87.4,65.9,29.69,ESE,112,13.8,17.3,49,0.00,CLR,,0.00,WeatherDisplay:10.37,2013-05-19 22:25:00,
2013-05-19 17:30:00,87.9,65.8,29.69,ESE,114,13.7,26.5,48,0.00,CLR,,0.00,WeatherDisplay:10.37,2013-05-19 22:30:00,
2013-05-19 17:35:00,88.1,65.9,29.69,SSE,158,9.6,15.0,48,0.00,CLR,,0.00,WeatherDisplay:10.37,2013-05-19 22:35:00,
2013-05-19 17:40:00,87.7,66.2,29.68,East,87,7.0,13.8,49,0.00,CLR,,0.00,WeatherDisplay:10.37,2013-05-19 22:40:00,
2013-05-19 17:45:00,87.2,65.1,29.68,SE,140,10.1,22.0,48,0.00,CLR,,0.00,WeatherDisplay:10.37,2013-05-19 22:45:00,
2013-05-19 17:50:00,87.1,65.0,29.67,ENE,57,10.2,13.8,48,0.00,CLR,,0.00,WeatherDisplay:10.37,2013-05-19 22:50:00,
2013-05-19 17:55:00,86.7,65.3,29.67,SE,135,7.5,15.0,49,0.00,CLR,,0.00,WeatherDisplay:10.37,2013-05-19 22:55:00,
2013-05-19 18:00:00,86.7,65.3,29.67,SSE,147,7.3,17.3,49,0.00,CLR,,0.00,WeatherDisplay:10.37,2013-05-19 23:00:00,
2013-05-19 18:05:00,86.7,65.3,29.67,SE,136,9.6,11.0,49,0.00,CLR,,0.00,WeatherDisplay:10.37,2013-05-19 23:05:00,
2013-05-19 18:10:00,86.6,65.2,29.67,SSE,147,12.6,15.0,49,0.00,CLR,,0.00,WeatherDisplay:10.37,2013-05-19 23:10:00,
2013-05-19 18:15:00,86.6,65.2,29.67,SE,138,7.8,11.5,49,0.00,CLR,,0.00,WeatherDisplay:10.37,2013-05-19 23:15:00,
2013-05-19 18:21:00,86.5,65.1,29.67,SE,141,9.5,12.7,49,0.00,CLR,,0.00,WeatherDisplay:10.37,2013-05-19 23:21:00,
2013-05-19 18:26:00,86.7,65.8,29.67,ESE,123,9.1,16.1,50,0.00,CLR,,0.00,WeatherDisplay:10.37,2013-05-19 23:26:00,
2013-05-19 18:31:00,86.8,65.3,29.67,SE,136,13.6,19.6,49,0.00,CLR,,0.00,WeatherDisplay:10.37,2013-05-19 23:31:00,
2013-05-19 18:36:00,86.7,65.8,29.68,SSE,149,11.0,16.0,50,0.00,CLR,,0.00,WeatherDisplay:10.37,2013-05-19 23:36:00,
2013-05-19 18:41:00,86.6,65.7,29.68,SSE,149,9.7,12.7,50,0.00,CLR,,0.00,WeatherDisplay:10.37,2013-05-19 23:41:00,
2013-05-19 18:46:00,86.3,65.5,29.68,SE,140,9.8,15.0,50,0.00,CLR,,0.00,WeatherDisplay:10.37,2013-05-19 23:46:00,
2013-05-19 18:51:00,86.2,65.9,29.69,SE,137,10.0,16.1,51,0.00,CLR,,0.00,WeatherDisplay:10.37,2013-05-19 23:51:00,
2013-05-19 18:56:00,86.2,65.9,29.68,SSE,159,11.6,18.4,51,0.00,CLR,,0.00,WeatherDisplay:10.37,2013-05-19 23:56:00,
2013-05-19 19:01:00,86.0,65.8,29.68,SSE,168,12.7,19.6,51,0.00,CLR,,0.00,WeatherDisplay:10.37,2013-05-20 00:01:00,
2013-05-19 19:06:00,85.9,66.2,29.68,SE,140,12.1,16.1,52,0.00,CLR,,0.00,WeatherDisplay:10.37,2013-05-20 00:06:00,
2013-05-19 19:11:00,85.6,66.0,29.68,SSE,152,12.0,16.1,52,0.00,CLR,,0.00,WeatherDisplay:10.37,2013-05-20 00:11:00,
2013-05-19 19:16:00,85.4,66.3,29.69,SE,138,10.9,15.0,53,0.00,CLR,,0.00,WeatherDisplay:10.37,2013-05-20 00:16:00,
2013-05-19 19:21:00,85.2,66.1,29.69,SE,138,8.8,11.5,53,0.00,CLR,,0.00,WeatherDisplay:10.37,2013-05-20 00:21:00,
2013-05-19 19:26:00,85.0,66.5,29.69,SE,146,9.7,12.7,54,0.00,CLR,,0.00,WeatherDisplay:10.37,2013-05-20 00:26:00,
2013-05-19 19:31:00,84.8,66.3,29.69,SE,138,10.2,16.1,54,0.00,CLR,,0.00,WeatherDisplay:10.37,2013-05-20 00:31:00,
2013-05-19 19:36:00,84.7,66.7,29.69,SSE,155,9.5,11.5,55,0.00,CLR,,0.00,WeatherDisplay:10.37,2013-05-20 00:36:00,
2013-05-19 19:41:00,84.5,66.6,29.70,SSE,166,6.8,9.2,55,0.00,CLR,,0.00,WeatherDisplay:10.37,2013-05-20 00:41:00,
2013-05-19 19:46:00,84.3,66.9,29.70,SE,134,8.4,10.4,56,0.00,CLR,,0.00,WeatherDisplay:10.37,2013-05-20 00:46:00,
2013-05-19 19:51:00,84.2,67.3,29.70,SE,144,10.4,15.0,57,0.00,CLR,,0.00,WeatherDisplay:10.37,2013-05-20 00:51:00,
2013-05-19 19:56:00,84.0,67.1,29.70,SSE,150,11.1,16.1,57,0.00,CLR,,0.00,WeatherDisplay:10.37,2013-05-20 00:56:00,
2013-05-19 20:01:00,83.8,67.4,29.71,SSE,156,9.6,13.8,58,0.00,CLR,,0.00,WeatherDisplay:10.37,2013-05-20 01:01:00,
2013-05-19 20:06:00,83.8,67.4,29.71,SSE,154,8.5,11.5,58,0.00,CLR,,0.00,WeatherDisplay:10.37,2013-05-20 01:06:00,
2013-05-19 20:11:00,83.7,67.4,29.71,SSE,151,9.7,12.7,58,0.00,CLR,,0.00,WeatherDisplay:10.37,2013-05-20 01:11:00,
2013-05-19 20:16:00,83.5,67.7,29.72,SSE,154,8.2,13.8,59,0.00,CLR,,0.00,WeatherDisplay:10.37,2013-05-20 01:16:00,
2013-05-19 20:21:00,83.2,65.4,29.75,SSW,198,15.1,26.5,55,0.00,CLR,,0.00,WeatherDisplay:10.37,2013-05-20 01:21:00,
2013-05-19 20:26:00,78.9,59.2,29.74,SW,221,11.2,16.0,51,0.00,CLR,,0.00,WeatherDisplay:10.37,2013-05-20 01:26:00,
2013-05-19 20:31:00,74.9,60.1,29.75,SSW,213,11.1,17.3,60,0.00,CLR,,0.00,WeatherDisplay:10.37,2013-05-20 01:31:00,
2013-05-19 20:36:00,72.3,61.1,29.74,WSW,252,6.5,10.4,68,0.00,CLR,,0.00,WeatherDisplay:10.37,2013-05-20 01:36:00,
2013-05-19 20:41:00,69.7,61.4,29.75,South,169,3.9,6.9,75,0.00,CLR,,0.00,WeatherDisplay:10.37,2013-05-20 01:41:00,
2013-05-19 20:46:00,67.7,61.7,29.75,North,350,3.0,4.6,81,0.00,CLR,,0.01,WeatherDisplay:10.37,2013-05-20 01:46:00,
2013-05-19 20:51:00,66.6,61.9,29.75,North,355,5.2,6.9,85,0.01,RA,,0.01,WeatherDisplay:10.37,2013-05-20 01:51:00,
2013-05-19 20:56:00,66.0,62.0,29.73,NNW,346,4.2,5.8,87,0.02,RA,,0.02,WeatherDisplay:10.37,2013-05-20 01:56:00,
2013-05-19 21:01:00,65.9,62.2,29.72,North,360,2.5,4.6,88,0.02,RA,,0.03,WeatherDisplay:10.37,2013-05-20 02:01:00,
2013-05-19 21:06:00,65.9,62.2,29.72,North,360,3.4,4.0,88,0.03,RA,,0.03,WeatherDisplay:10.37,2013-05-20 02:06:00,
2013-05-19 21:11:00,65.9,62.6,29.72,NE,46,1.8,4.6,89,0.04,RA,,0.04,WeatherDisplay:10.37,2013-05-20 02:11:00,
2013-05-19 21:16:00,65.6,62.6,29.72,NE,50,1.2,1.2,90,0.04,RA,,0.04,WeatherDisplay:10.37,2013-05-20 02:16:00,
2013-05-19 21:21:00,65.9,62.9,29.71,NE,49,0.3,1.0,90,0.05,RA,,0.05,WeatherDisplay:10.37,2013-05-20 02:21:00,
2013-05-19 21:26:00,65.7,62.7,29.71,ENE,67,2.4,6.9,90,0.05,RA,,0.05,WeatherDisplay:10.37,2013-05-20 02:26:00,
2013-05-19 21:31:00,65.7,62.7,29.71,NE,44,3.2,3.5,90,0.05,,,0.05,WeatherDisplay:10.37,2013-05-20 02:31:00,
2013-05-19 21:36:00,65.6,62.9,29.71,East,89,4.8,6.0,91,0.06,RA,,0.06,WeatherDisplay:10.37,2013-05-20 02:36:00,
2013-05-19 21:41:00,65.7,62.7,29.71,NE,56,6.0,9.2,90,0.06,RA,,0.06,WeatherDisplay:10.37,2013-05-20 02:41:00,
2013-05-19 21:46:00,65.9,62.9,29.71,ESE,112,4.4,6.9,90,0.06,CLR,,0.06,WeatherDisplay:10.37,2013-05-20 02:46:00,
2013-05-19 21:51:00,66.0,63.0,29.71,ENE,69,4.5,5.0,90,0.05,CLR,,0.06,WeatherDisplay:10.37,2013-05-20 02:51:00,
2013-05-19 21:57:00,66.1,63.1,29.71,NE,56,2.2,4.0,90,0.04,CLR,,0.06,WeatherDisplay:10.37,2013-05-20 02:57:00,
2013-05-19 22:02:00,66.2,62.9,29.71,NE,56,3.0,5.0,89,0.04,CLR,,0.06,WeatherDisplay:10.37,2013-05-20 03:02:00,
2013-05-19 22:07:00,66.4,62.7,29.71,ENE,71,3.9,8.1,88,0.03,CLR,,0.06,WeatherDisplay:10.37,2013-05-20 03:07:00,
2013-05-19 22:12:00,66.6,62.9,29.71,ENE,78,3.1,10.4,88,0.02,CLR,,0.06,WeatherDisplay:10.37,2013-05-20 03:12:00,
2013-05-19 22:17:00,66.5,63.2,29.70,ENE,59,3.7,5.8,89,0.02,CLR,,0.06,WeatherDisplay:10.37,2013-05-20 03:17:00,
2013-05-19 22:22:00,66.5,63.5,29.69,ENE,70,4.7,10.4,90,0.01,CLR,,0.06,WeatherDisplay:10.37,2013-05-20 03:22:00,
2013-05-19 22:27:00,66.4,63.4,29.69,NE,44,4.1,8.1,90,0.01,CLR,,0.06,WeatherDisplay:10.37,2013-05-20 03:27:00,
2013-05-19 22:32:00,66.4,63.4,29.69,ENE,61,3.1,5.8,90,0.01,CLR,,0.06,WeatherDisplay:10.37,2013-05-20 03:32:00,
2013-05-19 22:37:00,66.5,63.2,29.70,NE,46,2.1,3.5,89,0.00,CLR,,0.06,WeatherDisplay:10.37,2013-05-20 03:37:00,
2013-05-19 22:42:00,66.6,63.3,29.69,East,82,3.7,5.8,89,0.00,CLR,,0.06,WeatherDisplay:10.37,2013-05-20 03:42:00,
2013-05-19 22:47:00,67.1,63.4,29.69,East,92,5.6,10.4,88,0.00,CLR,,0.06,WeatherDisplay:10.37,2013-05-20 03:47:00,
2013-05-19 22:52:00,67.3,63.6,29.68,East,86,4.8,9.2,88,0.00,CLR,,0.06,WeatherDisplay:10.37,2013-05-20 03:52:00,
2013-05-19 22:57:00,67.7,63.7,29.69,ENE,68,5.1,8.1,87,0.00,CLR,,0.06,WeatherDisplay:10.37,2013-05-20 03:57:00,
2013-05-19 23:01:00,67.8,63.8,29.69,ENE,63,4.8,8.1,87,0.00,CLR,,0.06,WeatherDisplay:10.37,2013-05-20 04:01:00,
2013-05-19 23:02:00,67.9,63.9,29.69,ENE,71,2.5,7.0,87,0.00,CLR,,0.06,WeatherDisplay:10.37,2013-05-20 04:02:00,
2013-05-19 23:03:00,67.9,63.9,29.69,ENE,65,3.4,6.9,87,0.00,CLR,,0.06,WeatherDisplay:10.37,2013-05-20 04:03:00,
2013-05-19 23:08:00,68.2,63.9,29.70,East,82,3.9,5.8,86,0.00,CLR,,0.06,WeatherDisplay:10.37,2013-05-20 04:08:00,
2013-05-19 23:13:00,68.3,63.6,29.70,NE,46,3.5,8.1,85,0.00,CLR,,0.06,WeatherDisplay:10.37,2013-05-20 04:13:00,
2013-05-19 23:18:00,68.4,63.7,29.70,ENE,67,3.8,6.0,85,0.00,CLR,,0.06,WeatherDisplay:10.37,2013-05-20 04:18:00,
2013-05-19 23:23:00,68.5,63.8,29.70,East,81,4.0,8.1,85,0.00,CLR,,0.06,WeatherDisplay:10.37,2013-05-20 04:23:00,
2013-05-19 23:28:00,69.2,63.8,29.70,ESE,102,5.3,9.2,83,0.00,CLR,,0.06,WeatherDisplay:10.37,2013-05-20 04:28:00,
2013-05-19 23:33:00,69.8,64.1,29.70,ESE,123,5.5,10.4,82,0.00,CLR,,0.06,WeatherDisplay:10.37,2013-05-20 04:33:00,
2013-05-19 23:38:00,70.3,64.2,29.71,East,92,4.7,9.2,81,0.00,CLR,,0.06,WeatherDisplay:10.37,2013-05-20 04:38:00,
2013-05-19 23:43:00,70.6,64.1,29.71,ESE,116,5.1,9.2,80,0.00,CLR,,0.06,WeatherDisplay:10.37,2013-05-20 04:43:00,
2013-05-19 23:48:00,70.6,64.1,29.71,East,82,4.5,8.1,80,0.00,CLR,,0.06,WeatherDisplay:10.37,2013-05-20 04:48:00,
2013-05-19 23:53:00,70.7,64.6,29.70,East,94,4.5,6.9,81,0.00,CLR,,0.06,WeatherDisplay:10.37,2013-05-20 04:53:00,
2013-05-19 23:58:00,70.8,64.7,29.70,East,91,8.3,11.5,81,0.00,CLR,,0.06,WeatherDisplay:10.37,2013-05-20 04:58:00,